sensor_id;sensor_type;location;lat;lon;timestamp;P1;durP1;ratioP1;P2;durP2;ratioP2
51738;SDS011;37815;52.692;6.226;2023-04-06T00:03:28;6.47;;;3.53;;
51738;SDS011;37815;52.692;6.226;2023-04-06T00:08:29;4.85;;;2.70;;
51738;SDS011;37815;52.692;6.226;2023-04-06T00:13:30;6.28;;;2.95;;
51738;SDS011;37815;52.692;6.226;2023-04-06T00:18:31;5.00;;;3.13;;
51738;SDS011;37815;52.692;6.226;2023-04-06T00:23:31;5.95;;;3.10;;
51738;SDS011;37815;52.692;6.226;2023-04-06T00:28:32;6.13;;;3.05;;
51738;SDS011;37815;52.692;6.226;2023-04-06T00:33:32;4.47;;;2.67;;
51738;SDS011;37815;52.692;6.226;2023-04-06T00:38:33;5.25;;;2.80;;
51738;SDS011;37815;52.692;6.226;2023-04-06T00:43:34;4.28;;;3.10;;
51738;SDS011;37815;52.692;6.226;2023-04-06T00:48:34;4.82;;;3.30;;
51738;SDS011;37815;52.692;6.226;2023-04-06T00:53:35;4.25;;;2.47;;
51738;SDS011;37815;52.692;6.226;2023-04-06T00:58:36;5.72;;;3.10;;
51738;SDS011;37815;52.692;6.226;2023-04-06T01:03:40;5.50;;;3.05;;
51738;SDS011;37815;52.692;6.226;2023-04-06T01:08:42;4.38;;;2.78;;
51738;SDS011;37815;52.692;6.226;2023-04-06T01:13:42;4.57;;;2.72;;
51738;SDS011;37815;52.692;6.226;2023-04-06T01:18:43;4.90;;;3.15;;
51738;SDS011;37815;52.692;6.226;2023-04-06T01:23:44;4.90;;;3.22;;
51738;SDS011;37815;52.692;6.226;2023-04-06T01:28:46;5.30;;;3.10;;
51738;SDS011;37815;52.692;6.226;2023-04-06T01:33:46;5.30;;;3.25;;
51738;SDS011;37815;52.692;6.226;2023-04-06T01:38:47;4.60;;;3.03;;
51738;SDS011;37815;52.692;6.226;2023-04-06T01:43:48;6.90;;;3.00;;
51738;SDS011;37815;52.692;6.226;2023-04-06T01:48:49;4.45;;;2.40;;
51738;SDS011;37815;52.692;6.226;2023-04-06T01:53:50;5.13;;;2.65;;
51738;SDS011;37815;52.692;6.226;2023-04-06T01:58:50;3.83;;;2.67;;
51738;SDS011;37815;52.692;6.226;2023-04-06T02:03:51;4.88;;;3.25;;
51738;SDS011;37815;52.692;6.226;2023-04-06T02:08:52;4.35;;;2.88;;
51738;SDS011;37815;52.692;6.226;2023-04-06T02:13:52;4.70;;;3.00;;
51738;SDS011;37815;52.692;6.226;2023-04-06T02:18:53;5.07;;;2.97;;
51738;SDS011;37815;52.692;6.226;2023-04-06T02:23:53;4.20;;;2.53;;
51738;SDS011;37815;52.692;6.226;2023-04-06T02:28:54;5.43;;;2.90;;
51738;SDS011;37815;52.692;6.226;2023-04-06T02:33:55;5.05;;;3.33;;
51738;SDS011;37815;52.692;6.226;2023-04-06T02:38:55;4.43;;;2.88;;
51738;SDS011;37815;52.692;6.226;2023-04-06T02:43:56;3.78;;;2.42;;
51738;SDS011;37815;52.692;6.226;2023-04-06T02:48:57;6.40;;;3.22;;
51738;SDS011;37815;52.692;6.226;2023-04-06T02:54:00;5.40;;;3.10;;
51738;SDS011;37815;52.692;6.226;2023-04-06T02:59:00;5.00;;;3.30;;
51738;SDS011;37815;52.692;6.226;2023-04-06T03:04:01;9.40;;;3.30;;
51738;SDS011;37815;52.692;6.226;2023-04-06T03:09:02;6.38;;;2.78;;
51738;SDS011;37815;52.692;6.226;2023-04-06T03:14:03;5.55;;;3.70;;
51738;SDS011;37815;52.692;6.226;2023-04-06T03:19:03;3.75;;;3.00;;
51738;SDS011;37815;52.692;6.226;2023-04-06T03:24:04;6.45;;;3.30;;
51738;SDS011;37815;52.692;6.226;2023-04-06T03:29:05;5.13;;;3.30;;
51738;SDS011;37815;52.692;6.226;2023-04-06T03:34:06;5.97;;;3.10;;
51738;SDS011;37815;52.692;6.226;2023-04-06T03:39:07;5.22;;;3.40;;
51738;SDS011;37815;52.692;6.226;2023-04-06T03:44:07;6.70;;;3.80;;
51738;SDS011;37815;52.692;6.226;2023-04-06T03:49:08;6.65;;;3.45;;
51738;SDS011;37815;52.692;6.226;2023-04-06T03:54:08;5.43;;;3.47;;
51738;SDS011;37815;52.692;6.226;2023-04-06T03:59:09;6.20;;;3.75;;
51738;SDS011;37815;52.692;6.226;2023-04-06T04:04:10;5.57;;;3.58;;
51738;SDS011;37815;52.692;6.226;2023-04-06T04:09:10;6.18;;;3.85;;
51738;SDS011;37815;52.692;6.226;2023-04-06T04:14:11;7.32;;;4.28;;
51738;SDS011;37815;52.692;6.226;2023-04-06T04:19:11;9.18;;;4.13;;
51738;SDS011;37815;52.692;6.226;2023-04-06T04:24:12;5.88;;;3.60;;
51738;SDS011;37815;52.692;6.226;2023-04-06T04:29:13;5.82;;;3.65;;
51738;SDS011;37815;52.692;6.226;2023-04-06T04:34:14;7.13;;;3.75;;
51738;SDS011;37815;52.692;6.226;2023-04-06T04:39:15;5.95;;;4.03;;
51738;SDS011;37815;52.692;6.226;2023-04-06T04:44:16;6.65;;;3.92;;
51738;SDS011;37815;52.692;6.226;2023-04-06T04:49:16;5.30;;;3.30;;
51738;SDS011;37815;52.692;6.226;2023-04-06T04:54:17;6.43;;;3.85;;
51738;SDS011;37815;52.692;6.226;2023-04-06T04:59:17;6.22;;;4.00;;
51738;SDS011;37815;52.692;6.226;2023-04-06T05:04:18;7.40;;;3.90;;
51738;SDS011;37815;52.692;6.226;2023-04-06T05:09:19;7.53;;;3.83;;
51738;SDS011;37815;52.692;6.226;2023-04-06T05:14:19;9.48;;;3.85;;
51738;SDS011;37815;52.692;6.226;2023-04-06T05:19:20;6.75;;;3.97;;
51738;SDS011;37815;52.692;6.226;2023-04-06T05:24:21;6.32;;;4.13;;
51738;SDS011;37815;52.692;6.226;2023-04-06T05:29:22;6.65;;;4.22;;
51738;SDS011;37815;52.692;6.226;2023-04-06T05:34:22;6.53;;;4.15;;
51738;SDS011;37815;52.692;6.226;2023-04-06T05:39:23;6.07;;;4.07;;
51738;SDS011;37815;52.692;6.226;2023-04-06T05:44:23;8.88;;;4.78;;
51738;SDS011;37815;52.692;6.226;2023-04-06T05:49:24;7.10;;;4.40;;
51738;SDS011;37815;52.692;6.226;2023-04-06T05:54:25;7.82;;;4.43;;
51738;SDS011;37815;52.692;6.226;2023-04-06T05:59:26;7.18;;;4.15;;
51738;SDS011;37815;52.692;6.226;2023-04-06T06:04:29;7.90;;;4.13;;
51738;SDS011;37815;52.692;6.226;2023-04-06T06:09:30;8.32;;;4.75;;
51738;SDS011;37815;52.692;6.226;2023-04-06T06:14:31;9.70;;;5.05;;
51738;SDS011;37815;52.692;6.226;2023-04-06T06:19:31;9.07;;;5.03;;
51738;SDS011;37815;52.692;6.226;2023-04-06T06:24:32;7.68;;;5.18;;
51738;SDS011;37815;52.692;6.226;2023-04-06T06:29:33;8.85;;;5.07;;
51738;SDS011;37815;52.692;6.226;2023-04-06T06:34:33;9.18;;;5.00;;
51738;SDS011;37815;52.692;6.226;2023-04-06T06:39:34;6.78;;;4.80;;
51738;SDS011;37815;52.692;6.226;2023-04-06T06:44:35;10.88;;;5.68;;
51738;SDS011;37815;52.692;6.226;2023-04-06T06:49:35;9.05;;;5.10;;
51738;SDS011;37815;52.692;6.226;2023-04-06T06:54:36;10.18;;;5.72;;
51738;SDS011;37815;52.692;6.226;2023-04-06T06:59:37;10.18;;;5.80;;
51738;SDS011;37815;52.692;6.226;2023-04-06T07:04:37;13.95;;;6.28;;
51738;SDS011;37815;52.692;6.226;2023-04-06T07:09:38;8.55;;;4.70;;
51738;SDS011;37815;52.692;6.226;2023-04-06T07:14:38;8.88;;;5.25;;
51738;SDS011;37815;52.692;6.226;2023-04-06T07:19:39;10.93;;;6.15;;
51738;SDS011;37815;52.692;6.226;2023-04-06T07:24:40;9.75;;;5.68;;
51738;SDS011;37815;52.692;6.226;2023-04-06T07:29:41;12.30;;;6.43;;
51738;SDS011;37815;52.692;6.226;2023-04-06T07:34:42;13.05;;;6.60;;
51738;SDS011;37815;52.692;6.226;2023-04-06T07:39:42;10.82;;;5.95;;
51738;SDS011;37815;52.692;6.226;2023-04-06T07:44:43;12.90;;;6.13;;
51738;SDS011;37815;52.692;6.226;2023-04-06T07:49:43;12.93;;;6.85;;
51738;SDS011;37815;52.692;6.226;2023-04-06T07:54:45;11.65;;;5.82;;
51738;SDS011;37815;52.692;6.226;2023-04-06T07:59:46;11.43;;;6.43;;
51738;SDS011;37815;52.692;6.226;2023-04-06T08:04:47;11.70;;;6.03;;
51738;SDS011;37815;52.692;6.226;2023-04-06T08:09:47;10.43;;;6.57;;
51738;SDS011;37815;52.692;6.226;2023-04-06T08:14:48;15.05;;;7.05;;
51738;SDS011;37815;52.692;6.226;2023-04-06T08:19:49;13.15;;;6.93;;
51738;SDS011;37815;52.692;6.226;2023-04-06T08:24:50;13.13;;;7.25;;
51738;SDS011;37815;52.692;6.226;2023-04-06T08:29:51;12.30;;;6.32;;
51738;SDS011;37815;52.692;6.226;2023-04-06T08:34:54;13.25;;;7.10;;
51738;SDS011;37815;52.692;6.226;2023-04-06T08:40:03;11.73;;;6.32;;
51738;SDS011;37815;52.692;6.226;2023-04-06T08:45:04;15.55;;;7.57;;
51738;SDS011;37815;52.692;6.226;2023-04-06T08:50:05;11.85;;;7.40;;
51738;SDS011;37815;52.692;6.226;2023-04-06T08:55:07;13.18;;;6.90;;
51738;SDS011;37815;52.692;6.226;2023-04-06T09:00:09;11.38;;;7.00;;
51738;SDS011;37815;52.692;6.226;2023-04-06T09:05:11;15.10;;;7.47;;
51738;SDS011;37815;52.692;6.226;2023-04-06T09:10:12;16.20;;;8.10;;
51738;SDS011;37815;52.692;6.226;2023-04-06T09:15:20;17.83;;;7.78;;
51738;SDS011;37815;52.692;6.226;2023-04-06T09:20:22;16.80;;;7.68;;
51738;SDS011;37815;52.692;6.226;2023-04-06T09:25:25;17.17;;;8.68;;
51738;SDS011;37815;52.692;6.226;2023-04-06T09:30:31;17.77;;;9.18;;
51738;SDS011;37815;52.692;6.226;2023-04-06T09:35:31;18.17;;;8.90;;
51738;SDS011;37815;52.692;6.226;2023-04-06T09:40:32;18.58;;;8.55;;
51738;SDS011;37815;52.692;6.226;2023-04-06T09:45:34;17.27;;;8.52;;
51738;SDS011;37815;52.692;6.226;2023-04-06T09:50:35;16.83;;;8.65;;
51738;SDS011;37815;52.692;6.226;2023-04-06T09:55:42;18.77;;;9.07;;
51738;SDS011;37815;52.692;6.226;2023-04-06T10:00:46;15.30;;;9.05;;
51738;SDS011;37815;52.692;6.226;2023-04-06T10:05:52;22.13;;;9.53;;
51738;SDS011;37815;52.692;6.226;2023-04-06T10:11:00;21.67;;;9.55;;
51738;SDS011;37815;52.692;6.226;2023-04-06T10:16:02;23.02;;;9.55;;
51738;SDS011;37815;52.692;6.226;2023-04-06T10:21:09;21.27;;;9.48;;
51738;SDS011;37815;52.692;6.226;2023-04-06T10:26:14;20.47;;;10.73;;
51738;SDS011;37815;52.692;6.226;2023-04-06T10:31:26;17.17;;;8.95;;
51738;SDS011;37815;52.692;6.226;2023-04-06T10:36:28;24.80;;;10.98;;
51738;SDS011;37815;52.692;6.226;2023-04-06T10:41:33;27.42;;;10.93;;
51738;SDS011;37815;52.692;6.226;2023-04-06T10:46:51;22.38;;;10.65;;
51738;SDS011;37815;52.692;6.226;2023-04-06T10:51:56;24.75;;;11.18;;
51738;SDS011;37815;52.692;6.226;2023-04-06T10:56:57;23.23;;;11.35;;
51738;SDS011;37815;52.692;6.226;2023-04-06T11:01:57;23.85;;;10.50;;
51738;SDS011;37815;52.692;6.226;2023-04-06T11:06:58;20.65;;;10.93;;
51738;SDS011;37815;52.692;6.226;2023-04-06T11:11:59;24.25;;;10.88;;
51738;SDS011;37815;52.692;6.226;2023-04-06T11:17:00;23.35;;;11.00;;
51738;SDS011;37815;52.692;6.226;2023-04-06T11:22:06;27.95;;;11.60;;
51738;SDS011;37815;52.692;6.226;2023-04-06T11:27:07;22.80;;;10.35;;
51738;SDS011;37815;52.692;6.226;2023-04-06T11:32:09;20.42;;;9.80;;
51738;SDS011;37815;52.692;6.226;2023-04-06T11:37:10;21.75;;;10.13;;
51738;SDS011;37815;52.692;6.226;2023-04-06T11:42:11;22.48;;;10.48;;
51738;SDS011;37815;52.692;6.226;2023-04-06T11:47:12;23.67;;;10.65;;
51738;SDS011;37815;52.692;6.226;2023-04-06T11:57:20;19.63;;;9.57;;
51738;SDS011;37815;52.692;6.226;2023-04-06T12:02:23;23.55;;;10.65;;
51738;SDS011;37815;52.692;6.226;2023-04-06T12:07:23;23.38;;;10.70;;
51738;SDS011;37815;52.692;6.226;2023-04-06T12:12:24;21.20;;;9.93;;
51738;SDS011;37815;52.692;6.226;2023-04-06T12:17:25;21.77;;;10.07;;
51738;SDS011;37815;52.692;6.226;2023-04-06T12:22:26;22.88;;;10.35;;
51738;SDS011;37815;52.692;6.226;2023-04-06T12:27:26;21.42;;;10.93;;
51738;SDS011;37815;52.692;6.226;2023-04-06T12:32:27;20.50;;;9.77;;
51738;SDS011;37815;52.692;6.226;2023-04-06T12:37:27;20.35;;;9.50;;
51738;SDS011;37815;52.692;6.226;2023-04-06T12:42:28;21.10;;;9.15;;
51738;SDS011;37815;52.692;6.226;2023-04-06T12:47:29;16.77;;;8.10;;
51738;SDS011;37815;52.692;6.226;2023-04-06T12:52:29;14.80;;;7.38;;
51738;SDS011;37815;52.692;6.226;2023-04-06T12:57:31;16.55;;;7.47;;
51738;SDS011;37815;52.692;6.226;2023-04-06T13:02:32;15.88;;;7.32;;
51738;SDS011;37815;52.692;6.226;2023-04-06T13:07:33;16.92;;;7.50;;
51738;SDS011;37815;52.692;6.226;2023-04-06T13:12:33;15.63;;;7.18;;
51738;SDS011;37815;52.692;6.226;2023-04-06T13:17:34;16.52;;;7.78;;
51738;SDS011;37815;52.692;6.226;2023-04-06T13:22:35;14.80;;;6.60;;
51738;SDS011;37815;52.692;6.226;2023-04-06T13:27:36;12.27;;;6.35;;
51738;SDS011;37815;52.692;6.226;2023-04-06T13:32:36;14.45;;;7.03;;
51738;SDS011;37815;52.692;6.226;2023-04-06T13:37:37;15.25;;;7.00;;
51738;SDS011;37815;52.692;6.226;2023-04-06T13:42:38;15.02;;;6.80;;
51738;SDS011;37815;52.692;6.226;2023-04-06T13:47:40;13.70;;;7.15;;
51738;SDS011;37815;52.692;6.226;2023-04-06T13:52:41;14.00;;;6.30;;
51738;SDS011;37815;52.692;6.226;2023-04-06T13:57:42;12.82;;;6.63;;
51738;SDS011;37815;52.692;6.226;2023-04-06T14:02:42;12.60;;;6.47;;
51738;SDS011;37815;52.692;6.226;2023-04-06T14:07:43;16.27;;;8.15;;
51738;SDS011;37815;52.692;6.226;2023-04-06T14:12:44;15.05;;;7.43;;
51738;SDS011;37815;52.692;6.226;2023-04-06T14:17:45;14.43;;;7.93;;
51738;SDS011;37815;52.692;6.226;2023-04-06T14:22:45;13.65;;;7.40;;
51738;SDS011;37815;52.692;6.226;2023-04-06T14:27:46;15.75;;;8.05;;
51738;SDS011;37815;52.692;6.226;2023-04-06T14:32:47;14.95;;;8.30;;
51738;SDS011;37815;52.692;6.226;2023-04-06T14:37:48;14.55;;;8.07;;
51738;SDS011;37815;52.692;6.226;2023-04-06T14:42:48;15.23;;;8.13;;
51738;SDS011;37815;52.692;6.226;2023-04-06T14:47:51;13.13;;;8.02;;
51738;SDS011;37815;52.692;6.226;2023-04-06T14:52:52;14.10;;;7.93;;
51738;SDS011;37815;52.692;6.226;2023-04-06T14:57:52;18.60;;;9.38;;
51738;SDS011;37815;52.692;6.226;2023-04-06T15:02:53;15.63;;;8.55;;
51738;SDS011;37815;52.692;6.226;2023-04-06T15:07:53;19.92;;;9.13;;
51738;SDS011;37815;52.692;6.226;2023-04-06T15:12:54;15.95;;;8.68;;
51738;SDS011;37815;52.692;6.226;2023-04-06T15:17:55;14.00;;;7.80;;
51738;SDS011;37815;52.692;6.226;2023-04-06T15:22:55;14.63;;;8.18;;
51738;SDS011;37815;52.692;6.226;2023-04-06T15:27:56;14.57;;;7.22;;
51738;SDS011;37815;52.692;6.226;2023-04-06T15:32:58;12.90;;;7.28;;
51738;SDS011;37815;52.692;6.226;2023-04-06T15:38:03;13.07;;;7.32;;
51738;SDS011;37815;52.692;6.226;2023-04-06T15:43:04;13.15;;;7.00;;
51738;SDS011;37815;52.692;6.226;2023-04-06T15:48:05;14.18;;;7.05;;
51738;SDS011;37815;52.692;6.226;2023-04-06T15:53:06;13.70;;;6.43;;
51738;SDS011;37815;52.692;6.226;2023-04-06T15:58:06;11.98;;;6.82;;
51738;SDS011;37815;52.692;6.226;2023-04-06T16:03:07;11.68;;;6.80;;
51738;SDS011;37815;52.692;6.226;2023-04-06T16:08:07;11.63;;;6.40;;
51738;SDS011;37815;52.692;6.226;2023-04-06T16:13:10;12.88;;;6.85;;
51738;SDS011;37815;52.692;6.226;2023-04-06T16:18:10;12.07;;;6.05;;
51738;SDS011;37815;52.692;6.226;2023-04-06T16:23:11;13.13;;;6.57;;
51738;SDS011;37815;52.692;6.226;2023-04-06T16:28:12;9.07;;;5.97;;
51738;SDS011;37815;52.692;6.226;2023-04-06T16:33:13;11.70;;;6.20;;
51738;SDS011;37815;52.692;6.226;2023-04-06T16:38:16;9.13;;;5.00;;
51738;SDS011;37815;52.692;6.226;2023-04-06T16:43:16;9.00;;;5.38;;
51738;SDS011;37815;52.692;6.226;2023-04-06T16:48:17;9.57;;;5.45;;
51738;SDS011;37815;52.692;6.226;2023-04-06T16:53:17;10.85;;;5.47;;
51738;SDS011;37815;52.692;6.226;2023-04-06T16:58:18;10.60;;;5.13;;
51738;SDS011;37815;52.692;6.226;2023-04-06T17:03:19;7.55;;;4.60;;
51738;SDS011;37815;52.692;6.226;2023-04-06T17:08:19;7.72;;;4.55;;
51738;SDS011;37815;52.692;6.226;2023-04-06T17:13:20;9.98;;;5.10;;
51738;SDS011;37815;52.692;6.226;2023-04-06T17:18:20;8.30;;;4.97;;
51738;SDS011;37815;52.692;6.226;2023-04-06T17:23:21;9.05;;;5.38;;
51738;SDS011;37815;52.692;6.226;2023-04-06T17:28:24;9.77;;;4.97;;
51738;SDS011;37815;52.692;6.226;2023-04-06T17:33:25;9.75;;;5.03;;
51738;SDS011;37815;52.692;6.226;2023-04-06T17:38:26;8.65;;;4.72;;
51738;SDS011;37815;52.692;6.226;2023-04-06T17:43:27;8.65;;;4.93;;
51738;SDS011;37815;52.692;6.226;2023-04-06T17:48:27;7.40;;;4.63;;
51738;SDS011;37815;52.692;6.226;2023-04-06T17:53:28;7.15;;;4.18;;
51738;SDS011;37815;52.692;6.226;2023-04-06T17:58:31;8.23;;;4.57;;
51738;SDS011;37815;52.692;6.226;2023-04-06T18:03:31;8.93;;;4.78;;
51738;SDS011;37815;52.692;6.226;2023-04-06T18:08:32;8.45;;;4.63;;
51738;SDS011;37815;52.692;6.226;2023-04-06T18:13:33;8.75;;;4.20;;
51738;SDS011;37815;52.692;6.226;2023-04-06T18:18:33;7.93;;;4.88;;
51738;SDS011;37815;52.692;6.226;2023-04-06T18:23:34;15.05;;;5.25;;
51738;SDS011;37815;52.692;6.226;2023-04-06T18:28:36;10.27;;;4.45;;
51738;SDS011;37815;52.692;6.226;2023-04-06T18:33:36;11.20;;;5.00;;
51738;SDS011;37815;52.692;6.226;2023-04-06T18:38:41;8.25;;;4.43;;
51738;SDS011;37815;52.692;6.226;2023-04-06T18:43:48;8.68;;;4.65;;
51738;SDS011;37815;52.692;6.226;2023-04-06T18:48:51;11.40;;;5.80;;
51738;SDS011;37815;52.692;6.226;2023-04-06T18:53:51;7.72;;;4.82;;
51738;SDS011;37815;52.692;6.226;2023-04-06T18:58:52;9.55;;;5.50;;
51738;SDS011;37815;52.692;6.226;2023-04-06T19:03:53;10.07;;;4.97;;
51738;SDS011;37815;52.692;6.226;2023-04-06T19:08:55;9.77;;;5.22;;
51738;SDS011;37815;52.692;6.226;2023-04-06T19:13:56;9.35;;;4.88;;
51738;SDS011;37815;52.692;6.226;2023-04-06T19:18:56;9.43;;;4.68;;
51738;SDS011;37815;52.692;6.226;2023-04-06T19:23:58;8.80;;;5.50;;
51738;SDS011;37815;52.692;6.226;2023-04-06T19:28:59;12.30;;;5.45;;
51738;SDS011;37815;52.692;6.226;2023-04-06T19:34:00;11.05;;;5.20;;
51738;SDS011;37815;52.692;6.226;2023-04-06T19:39:01;11.30;;;5.85;;
51738;SDS011;37815;52.692;6.226;2023-04-06T19:44:02;12.63;;;5.78;;
51738;SDS011;37815;52.692;6.226;2023-04-06T19:49:02;9.57;;;5.63;;
51738;SDS011;37815;52.692;6.226;2023-04-06T19:54:03;10.30;;;5.57;;
51738;SDS011;37815;52.692;6.226;2023-04-06T19:59:05;12.18;;;6.00;;
51738;SDS011;37815;52.692;6.226;2023-04-06T20:04:06;10.20;;;5.57;;
51738;SDS011;37815;52.692;6.226;2023-04-06T20:09:08;10.52;;;6.20;;
51738;SDS011;37815;52.692;6.226;2023-04-06T20:14:10;11.60;;;6.43;;
51738;SDS011;37815;52.692;6.226;2023-04-06T20:19:11;11.65;;;6.20;;
51738;SDS011;37815;52.692;6.226;2023-04-06T20:24:12;11.07;;;6.70;;
51738;SDS011;37815;52.692;6.226;2023-04-06T20:29:13;11.65;;;6.38;;
51738;SDS011;37815;52.692;6.226;2023-04-06T20:34:13;10.57;;;6.13;;
51738;SDS011;37815;52.692;6.226;2023-04-06T20:39:14;13.70;;;7.35;;
51738;SDS011;37815;52.692;6.226;2023-04-06T20:44:15;13.93;;;7.00;;
51738;SDS011;37815;52.692;6.226;2023-04-06T20:49:16;12.32;;;6.57;;
51738;SDS011;37815;52.692;6.226;2023-04-06T20:54:17;12.32;;;6.85;;
51738;SDS011;37815;52.692;6.226;2023-04-06T20:59:18;11.43;;;7.32;;
51738;SDS011;37815;52.692;6.226;2023-04-06T21:04:19;12.73;;;7.63;;
51738;SDS011;37815;52.692;6.226;2023-04-06T21:09:21;12.55;;;7.13;;
51738;SDS011;37815;52.692;6.226;2023-04-06T21:14:24;12.55;;;7.13;;
51738;SDS011;37815;52.692;6.226;2023-04-06T21:19:25;12.88;;;6.25;;
51738;SDS011;37815;52.692;6.226;2023-04-06T21:24:28;12.55;;;7.03;;
51738;SDS011;37815;52.692;6.226;2023-04-06T21:29:30;11.52;;;6.38;;
51738;SDS011;37815;52.692;6.226;2023-04-06T21:34:31;10.52;;;6.35;;
51738;SDS011;37815;52.692;6.226;2023-04-06T21:39:32;11.45;;;6.78;;
51738;SDS011;37815;52.692;6.226;2023-04-06T21:44:35;10.02;;;6.45;;
51738;SDS011;37815;52.692;6.226;2023-04-06T21:49:36;12.48;;;7.40;;
51738;SDS011;37815;52.692;6.226;2023-04-06T21:54:36;11.32;;;6.80;;
51738;SDS011;37815;52.692;6.226;2023-04-06T21:59:37;9.70;;;6.32;;
51738;SDS011;37815;52.692;6.226;2023-04-06T22:04:38;11.00;;;6.80;;
51738;SDS011;37815;52.692;6.226;2023-04-06T22:09:39;13.15;;;7.03;;
51738;SDS011;37815;52.692;6.226;2023-04-06T22:14:39;12.07;;;7.10;;
51738;SDS011;37815;52.692;6.226;2023-04-06T22:19:40;10.25;;;6.38;;
51738;SDS011;37815;52.692;6.226;2023-04-06T22:24:41;9.43;;;5.90;;
51738;SDS011;37815;52.692;6.226;2023-04-06T22:29:41;10.55;;;6.75;;
51738;SDS011;37815;52.692;6.226;2023-04-06T22:34:42;10.40;;;7.07;;
51738;SDS011;37815;52.692;6.226;2023-04-06T22:39:43;11.40;;;6.65;;
51738;SDS011;37815;52.692;6.226;2023-04-06T22:44:44;10.35;;;6.18;;
51738;SDS011;37815;52.692;6.226;2023-04-06T22:49:44;9.85;;;6.38;;
51738;SDS011;37815;52.692;6.226;2023-04-06T22:54:45;10.27;;;6.63;;
51738;SDS011;37815;52.692;6.226;2023-04-06T22:59:46;11.25;;;6.82;;
51738;SDS011;37815;52.692;6.226;2023-04-06T23:04:47;11.02;;;7.07;;
51738;SDS011;37815;52.692;6.226;2023-04-06T23:09:48;10.57;;;6.57;;
51738;SDS011;37815;52.692;6.226;2023-04-06T23:14:48;11.07;;;6.32;;
51738;SDS011;37815;52.692;6.226;2023-04-06T23:19:49;11.90;;;6.97;;
51738;SDS011;37815;52.692;6.226;2023-04-06T23:24:50;10.18;;;6.95;;
51738;SDS011;37815;52.692;6.226;2023-04-06T23:29:51;11.02;;;6.50;;
51738;SDS011;37815;52.692;6.226;2023-04-06T23:34:51;10.07;;;6.82;;
51738;SDS011;37815;52.692;6.226;2023-04-06T23:39:52;10.25;;;6.75;;
51738;SDS011;37815;52.692;6.226;2023-04-06T23:44:52;9.20;;;6.15;;
51738;SDS011;37815;52.692;6.226;2023-04-06T23:49:53;11.32;;;7.18;;
51738;SDS011;37815;52.692;6.226;2023-04-06T23:54:55;10.55;;;6.85;;
51738;SDS011;37815;52.692;6.226;2023-04-06T23:59:55;9.85;;;6.60;;
